createdAt,value
2018-09-13T00:00:30.170Z,21.22
2018-09-13T00:01:30.164Z,21.22
2018-09-13T00:02:30.156Z,21.18
2018-09-13T00:03:30.162Z,21.31
2018-09-13T00:04:30.147Z,21.34
2018-09-13T00:05:30.142Z,21.28
2018-09-13T00:06:30.136Z,21.34
2018-09-13T00:07:30.137Z,21.34
2018-09-13T00:08:30.132Z,21.33
2018-09-13T00:09:30.123Z,21.27
2018-09-13T00:10:30.123Z,21.31
2018-09-13T00:11:30.113Z,21.34
2018-09-13T00:12:30.119Z,21.36
2018-09-13T00:13:30.120Z,21.30
2018-09-13T00:14:30.101Z,21.30
2018-09-13T00:15:30.100Z,21.33
2018-09-13T00:16:30.091Z,21.18
2018-09-13T00:17:30.091Z,21.13
2018-09-13T00:18:30.083Z,21.16
2018-09-13T00:19:30.080Z,21.11
2018-09-13T00:20:30.073Z,21.01
2018-09-13T00:21:30.074Z,20.98
2018-09-13T00:22:30.068Z,20.94
2018-09-13T00:23:30.060Z,20.93
2018-09-13T00:24:30.055Z,20.96
2018-09-13T00:25:30.053Z,20.81
2018-09-13T00:26:30.044Z,20.82
2018-09-13T00:27:30.044Z,20.81
2018-09-13T00:28:30.034Z,20.76
2018-09-13T00:29:30.033Z,20.75
2018-09-13T00:30:30.027Z,20.75
2018-09-13T00:31:30.024Z,20.78
2018-09-13T00:32:30.015Z,20.73
2018-09-13T00:33:30.009Z,20.78
2018-09-13T00:34:30.005Z,20.63
2018-09-13T00:35:30.001Z,20.69
2018-09-13T00:36:29.998Z,20.64
2018-09-13T00:37:29.992Z,20.56
2018-09-13T00:38:29.986Z,20.66
2018-09-13T00:39:29.988Z,20.46
2018-09-13T00:40:29.983Z,20.53
2018-09-13T00:41:29.976Z,20.51
2018-09-13T00:42:29.967Z,20.50
2018-09-13T00:43:29.967Z,20.53
2018-09-13T00:44:29.957Z,20.41
2018-09-13T00:45:29.958Z,20.41
2018-09-13T00:46:29.948Z,20.31
2018-09-13T00:47:29.943Z,20.34
2018-09-13T00:48:29.942Z,20.37
2018-09-13T00:49:29.935Z,20.37
2018-09-13T00:50:29.935Z,20.31
2018-09-13T00:51:29.928Z,20.30
2018-09-13T00:52:29.927Z,20.30
2018-09-13T00:53:29.912Z,20.16
2018-09-13T00:54:29.909Z,20.20
2018-09-13T00:55:29.905Z,20.23
2018-09-13T00:56:29.899Z,20.13
2018-09-13T00:57:29.899Z,20.17
2018-09-13T00:58:29.888Z,20.19
2018-09-13T00:59:29.884Z,20.16
2018-09-13T01:00:29.884Z,20.16
2018-09-13T01:01:29.877Z,20.19
2018-09-13T01:02:29.870Z,20.12
2018-09-13T01:03:29.861Z,20.10
2018-09-13T01:04:29.859Z,20.13
2018-09-13T01:05:29.859Z,20.08
2018-09-13T01:06:29.850Z,20.12
2018-09-13T01:07:29.856Z,20.12
2018-09-13T01:08:29.836Z,20.16
2018-09-13T01:09:29.836Z,20.17
2018-09-13T01:10:29.825Z,20.27
2018-09-13T01:11:29.825Z,20.25
2018-09-13T01:12:29.823Z,20.27
2018-09-13T01:13:29.816Z,20.35
2018-09-13T01:14:29.807Z,20.41
2018-09-13T01:15:29.801Z,20.34
2018-09-13T01:16:29.797Z,20.41
2018-09-13T01:17:29.795Z,20.41
2018-09-13T01:18:29.790Z,20.41
2018-09-13T01:19:29.782Z,20.31
2018-09-13T01:20:29.776Z,20.35
2018-09-13T01:21:29.769Z,20.27
2018-09-13T01:22:29.768Z,20.20
2018-09-13T01:23:29.768Z,20.10
2018-09-13T01:24:29.756Z,20.23
2018-09-13T01:25:29.756Z,20.19
2018-09-13T01:26:29.750Z,20.16
2018-09-13T01:27:29.740Z,20.12
2018-09-13T01:28:29.735Z,20.07
2018-09-13T01:29:29.728Z,20.12
2018-09-13T01:30:29.724Z,20.12
2018-09-13T01:31:29.720Z,20.00
2018-09-13T01:32:29.713Z,20.12
2018-09-13T01:33:29.708Z,20.17
2018-09-13T01:34:29.705Z,20.19
2018-09-13T01:35:29.719Z,20.17
2018-09-13T01:36:29.693Z,20.19
2018-09-13T01:37:29.689Z,20.07
2018-09-13T01:38:29.686Z,20.02
2018-09-13T01:39:29.681Z,20.10
2018-09-13T01:40:29.679Z,19.92
2018-09-13T01:41:29.666Z,19.97
2018-09-13T01:42:29.663Z,19.90
2018-09-13T01:43:29.663Z,20.00
2018-09-13T01:44:29.654Z,20.02
2018-09-13T01:45:29.650Z,20.05
2018-09-13T01:46:29.649Z,20.05
2018-09-13T01:47:29.635Z,20.02
2018-09-13T01:48:29.636Z,19.92
2018-09-13T01:49:29.633Z,19.94
2018-09-13T01:50:29.621Z,19.87
2018-09-13T01:51:29.630Z,19.80
2018-09-13T01:52:29.610Z,19.78
2018-09-13T01:53:29.604Z,19.83
2018-09-13T01:54:29.598Z,19.87
2018-09-13T01:55:29.595Z,19.79
2018-09-13T01:56:29.590Z,19.79
2018-09-13T01:57:29.585Z,19.78
2018-09-13T01:58:29.586Z,19.75
2018-09-13T01:59:29.580Z,19.71
2018-09-13T02:00:29.569Z,19.71
2018-09-13T02:01:29.568Z,19.67
2018-09-13T02:02:29.563Z,19.65
2018-09-13T02:03:29.557Z,19.61
2018-09-13T02:04:29.548Z,19.62
2018-09-13T02:05:29.541Z,19.57
2018-09-13T02:06:29.538Z,19.58
2018-09-13T02:07:29.535Z,19.57
2018-09-13T02:08:29.531Z,19.49
2018-09-13T02:09:29.524Z,19.50
2018-09-13T02:10:29.517Z,19.52
2018-09-13T02:11:29.513Z,19.52
2018-09-13T02:12:29.505Z,19.43
2018-09-13T02:13:29.502Z,19.47
2018-09-13T02:14:29.497Z,19.39
2018-09-13T02:15:29.490Z,19.52
2018-09-13T02:16:29.483Z,19.52
2018-09-13T02:17:29.479Z,19.57
2018-09-13T02:18:29.472Z,19.42
2018-09-13T02:19:29.468Z,19.53
2018-09-13T02:20:29.462Z,19.45
2018-09-13T02:21:29.464Z,19.42
2018-09-13T02:22:29.458Z,19.43
2018-09-13T02:23:29.445Z,19.46
2018-09-13T02:24:29.445Z,19.52
2018-09-13T02:25:29.440Z,19.40
2018-09-13T02:26:29.431Z,19.42
2018-09-13T02:27:29.427Z,19.30
2018-09-13T02:28:29.418Z,19.39
2018-09-13T02:29:29.412Z,19.35
2018-09-13T02:30:29.408Z,19.38
2018-09-13T02:31:29.402Z,19.28
2018-09-13T02:32:29.402Z,19.28
2018-09-13T02:33:29.397Z,19.28
2018-09-13T02:34:29.387Z,19.28
2018-09-13T02:35:29.379Z,19.28
2018-09-13T02:36:29.379Z,19.27
2018-09-13T02:37:29.379Z,19.35
2018-09-13T02:38:29.363Z,19.31
2018-09-13T02:39:29.363Z,19.25
2018-09-13T02:40:29.357Z,19.28
2018-09-13T02:41:29.351Z,19.30
2018-09-13T02:42:29.339Z,19.34
2018-09-13T02:43:29.334Z,19.28
2018-09-13T02:44:29.331Z,19.23
2018-09-13T02:45:29.324Z,19.25
2018-09-13T02:46:29.327Z,19.13
2018-09-13T02:47:29.319Z,19.16
2018-09-13T02:48:29.314Z,19.07
2018-09-13T02:49:29.307Z,19.12
2018-09-13T02:50:29.297Z,19.12
2018-09-13T02:51:29.295Z,19.10
2018-09-13T02:52:29.288Z,19.09
2018-09-13T02:53:29.281Z,19.13
2018-09-13T02:54:29.277Z,19.02
2018-09-13T02:55:29.268Z,19.06
2018-09-13T02:56:29.268Z,19.07
2018-09-13T02:57:29.255Z,19.05
2018-09-13T02:58:29.252Z,18.97
2018-09-13T02:59:29.245Z,18.99
2018-09-13T03:00:29.240Z,19.02
2018-09-13T03:01:29.234Z,19.06
2018-09-13T03:02:29.229Z,18.99
2018-09-13T03:03:29.225Z,18.93
2018-09-13T03:04:29.218Z,18.97
2018-09-13T03:05:29.214Z,18.91
2018-09-13T03:06:29.219Z,18.93
2018-09-13T03:07:29.200Z,18.91
2018-09-13T03:08:29.194Z,18.79
2018-09-13T03:09:29.187Z,18.79
2018-09-13T03:10:29.189Z,18.78
2018-09-13T03:11:29.182Z,18.83
2018-09-13T03:12:29.173Z,18.89
2018-09-13T03:13:29.162Z,18.94
2018-09-13T03:14:29.160Z,19.01
2018-09-13T03:15:29.152Z,19.05
2018-09-13T03:16:29.157Z,18.99
2018-09-13T03:17:29.141Z,19.07
2018-09-13T03:18:29.137Z,19.07
2018-09-13T03:19:29.134Z,18.99
2018-09-13T03:20:29.126Z,19.05
2018-09-13T03:21:29.117Z,19.07
2018-09-13T03:22:29.118Z,18.90
2018-09-13T03:23:29.106Z,18.86
2018-09-13T03:24:29.106Z,18.84
2018-09-13T03:25:29.098Z,18.86
2018-09-13T03:26:29.097Z,18.86
2018-09-13T03:27:29.089Z,18.91
2018-09-13T03:28:29.080Z,19.07
2018-09-13T03:29:29.077Z,18.93
2018-09-13T03:30:29.070Z,18.94
2018-09-13T03:31:29.058Z,19.02
2018-09-13T03:32:29.053Z,18.94
2018-09-13T03:33:29.048Z,18.86
2018-09-13T03:34:29.050Z,18.82
2018-09-13T03:35:29.040Z,18.78
2018-09-13T03:36:29.032Z,18.74
2018-09-13T03:37:29.025Z,18.90
2018-09-13T03:38:29.019Z,18.74
2018-09-13T03:39:29.013Z,18.83
2018-09-13T03:40:29.010Z,18.78
2018-09-13T03:41:28.997Z,18.76
2018-09-13T03:42:28.997Z,18.72
2018-09-13T03:43:28.993Z,18.76
2018-09-13T03:44:28.982Z,18.82
2018-09-13T03:45:28.977Z,18.65
2018-09-13T03:46:28.969Z,18.64
2018-09-13T03:47:28.965Z,18.59
2018-09-13T03:48:28.958Z,18.57
2018-09-13T03:49:28.954Z,18.57
2018-09-13T03:50:28.947Z,18.57
2018-09-13T03:51:28.953Z,18.53
2018-09-13T03:52:28.933Z,18.57
2018-09-13T03:53:28.927Z,18.49
2018-09-13T03:54:28.927Z,18.49
2018-09-13T03:55:28.921Z,18.46
2018-09-13T03:56:28.915Z,18.46
2018-09-13T03:57:28.913Z,18.47
2018-09-13T03:58:28.896Z,18.35
2018-09-13T03:59:28.892Z,18.41
2018-09-13T04:00:28.888Z,18.35
2018-09-13T04:01:28.879Z,18.29
2018-09-13T04:02:28.877Z,18.31
2018-09-13T04:03:28.962Z,18.28
2018-09-13T04:04:28.864Z,18.29
2018-09-13T04:05:28.855Z,18.29
2018-09-13T04:06:28.850Z,18.36
2018-09-13T04:07:28.843Z,18.29
2018-09-13T04:08:28.836Z,18.28
2018-09-13T04:09:28.832Z,18.21
2018-09-13T04:10:28.829Z,18.31
2018-09-13T04:11:28.818Z,18.32
2018-09-13T04:12:28.813Z,18.31
2018-09-13T04:13:28.806Z,18.31
2018-09-13T04:14:28.801Z,18.25
2018-09-13T04:15:28.800Z,18.19
2018-09-13T04:16:28.796Z,18.26
2018-09-13T04:17:28.787Z,18.26
2018-09-13T04:18:28.781Z,18.28
2018-09-13T04:19:28.772Z,18.32
2018-09-13T04:20:28.763Z,18.36
2018-09-13T04:21:28.761Z,18.31
2018-09-13T04:22:28.793Z,18.31
2018-09-13T04:23:28.744Z,18.47
2018-09-13T04:24:28.738Z,18.38
2018-09-13T04:25:28.732Z,18.50
2018-09-13T04:26:28.730Z,18.47
2018-09-13T04:27:28.722Z,18.56
2018-09-13T04:28:28.712Z,18.54
2018-09-13T04:29:28.712Z,18.59
2018-09-13T04:30:28.705Z,18.62
2018-09-13T04:31:28.699Z,18.66
2018-09-13T04:32:28.693Z,18.72
2018-09-13T04:33:28.686Z,18.78
2018-09-13T04:34:28.681Z,18.76
2018-09-13T04:35:28.711Z,18.68
2018-09-13T04:36:28.670Z,18.69
2018-09-13T04:37:28.658Z,18.56
2018-09-13T04:38:28.652Z,18.60
2018-09-13T04:39:28.644Z,18.62
2018-09-13T04:40:28.639Z,18.59
2018-09-13T04:41:28.638Z,18.51
2018-09-13T04:42:28.631Z,18.50
2018-09-13T04:43:28.619Z,18.46
2018-09-13T04:44:28.615Z,18.44
2018-09-13T04:45:28.606Z,18.28
2018-09-13T04:46:28.602Z,18.29
2018-09-13T04:47:28.595Z,18.26
2018-09-13T04:48:28.588Z,18.16
2018-09-13T04:49:28.582Z,18.23
2018-09-13T04:50:28.576Z,18.20
2018-09-13T04:51:28.572Z,18.19
2018-09-13T04:52:28.568Z,18.14
2018-09-13T04:53:28.562Z,18.13
2018-09-13T04:54:28.551Z,18.14
2018-09-13T04:55:28.543Z,18.10
2018-09-13T04:56:28.539Z,18.14
2018-09-13T04:57:28.530Z,18.09
2018-09-13T04:58:28.526Z,18.16
2018-09-13T04:59:28.517Z,18.14
2018-09-13T05:00:28.512Z,18.16
2018-09-13T05:01:28.504Z,18.20
2018-09-13T05:02:28.500Z,18.21
2018-09-13T05:03:28.490Z,18.31
2018-09-13T05:04:28.491Z,18.31
2018-09-13T05:05:28.481Z,18.31
2018-09-13T05:06:28.478Z,18.28
2018-09-13T05:07:28.464Z,18.23
2018-09-13T05:08:28.458Z,18.28
2018-09-13T05:09:28.455Z,18.23
2018-09-13T05:10:28.447Z,18.16
2018-09-13T05:11:28.442Z,18.16
2018-09-13T05:12:28.443Z,18.17
2018-09-13T05:13:28.434Z,18.13
2018-09-13T05:14:28.428Z,18.11
2018-09-13T05:15:28.427Z,18.16
2018-09-13T05:16:28.408Z,18.11
2018-09-13T05:17:28.408Z,18.10
2018-09-13T05:18:28.400Z,18.14
2018-09-13T05:19:28.393Z,18.05
2018-09-13T05:20:28.389Z,18.11
2018-09-13T05:21:28.378Z,18.17
2018-09-13T05:22:28.373Z,18.17
2018-09-13T05:23:28.365Z,18.23
2018-09-13T05:24:28.373Z,18.26
2018-09-13T05:25:28.350Z,18.42
2018-09-13T05:26:28.342Z,18.39
2018-09-13T05:27:28.338Z,18.39
2018-09-13T05:28:28.338Z,18.35
2018-09-13T05:29:28.324Z,18.39
2018-09-13T05:30:28.322Z,18.36
2018-09-13T05:31:28.346Z,18.42
2018-09-13T05:32:28.313Z,18.41
2018-09-13T05:33:28.303Z,18.39
2018-09-13T05:34:28.293Z,18.42
2018-09-13T05:35:28.285Z,18.26
2018-09-13T05:36:28.286Z,18.28
2018-09-13T05:37:28.275Z,18.29
2018-09-13T05:38:28.272Z,18.31
2018-09-13T05:39:28.259Z,18.34
2018-09-13T05:40:28.259Z,18.42
2018-09-13T05:41:28.253Z,18.38
2018-09-13T05:42:28.245Z,18.44
2018-09-13T05:43:28.235Z,18.47
2018-09-13T05:44:28.237Z,18.41
2018-09-13T05:45:28.225Z,18.50
2018-09-13T05:46:28.218Z,18.51
2018-09-13T05:47:28.216Z,18.49
2018-09-13T05:48:28.205Z,18.53
2018-09-13T05:49:28.195Z,18.50
2018-09-13T05:50:28.193Z,18.51
2018-09-13T05:51:28.185Z,18.50
2018-09-13T05:52:28.175Z,18.53
2018-09-13T05:53:28.168Z,18.49
2018-09-13T05:54:28.167Z,18.59
2018-09-13T05:55:28.164Z,18.54
2018-09-13T05:56:28.156Z,18.65
2018-09-13T05:57:28.145Z,18.66
2018-09-13T05:58:28.142Z,18.66
2018-09-13T05:59:28.135Z,18.74
2018-09-13T06:00:28.131Z,18.76
2018-09-13T06:01:28.134Z,18.84
2018-09-13T06:02:28.116Z,18.83
2018-09-13T06:03:28.111Z,18.74
2018-09-13T06:04:28.103Z,18.74
2018-09-13T06:05:28.096Z,18.84
2018-09-13T06:06:28.090Z,18.82
2018-09-13T06:07:28.086Z,18.90
2018-09-13T06:08:28.080Z,18.91
2018-09-13T06:09:28.074Z,18.94
2018-09-13T06:10:28.066Z,18.96
2018-09-13T06:11:28.061Z,18.93
2018-09-13T06:12:28.054Z,18.90
2018-09-13T06:13:28.049Z,18.87
2018-09-13T06:14:28.049Z,18.89
2018-09-13T06:15:28.041Z,18.94
2018-09-13T06:16:28.032Z,19.05
2018-09-13T06:17:28.022Z,19.02
2018-09-13T06:18:28.018Z,19.06
2018-09-13T06:19:28.015Z,19.16
2018-09-13T06:20:28.011Z,19.15
2018-09-13T06:21:27.998Z,19.09
2018-09-13T06:22:27.995Z,19.09
2018-09-13T06:23:27.992Z,19.25
2018-09-13T06:24:27.981Z,19.27
2018-09-13T06:25:27.977Z,19.40
2018-09-13T06:26:27.968Z,19.45
2018-09-13T06:27:27.970Z,19.49
2018-09-13T06:28:27.963Z,19.60
2018-09-13T06:29:27.989Z,19.72
2018-09-13T06:30:27.944Z,19.75
2018-09-13T06:31:27.940Z,19.85
2018-09-13T06:32:27.940Z,19.98
2018-09-13T06:33:27.928Z,20.01
2018-09-13T06:34:27.928Z,20.20
2018-09-13T06:35:27.918Z,20.33
2018-09-13T06:36:27.990Z,20.38
2018-09-13T06:37:27.904Z,20.42
2018-09-13T06:38:27.962Z,20.50
2018-09-13T06:39:27.894Z,20.63
2018-09-13T06:40:27.890Z,20.61
2018-09-13T06:41:27.887Z,20.68
2018-09-13T06:42:27.892Z,20.66
2018-09-13T06:43:27.871Z,20.66
2018-09-13T06:44:27.867Z,20.69
2018-09-13T06:45:27.863Z,20.61
2018-09-13T06:46:27.859Z,20.63
2018-09-13T06:47:27.851Z,20.64
2018-09-13T06:48:27.869Z,20.66
2018-09-13T06:49:27.839Z,20.57
2018-09-13T06:50:27.841Z,20.63
2018-09-13T06:51:27.833Z,20.64
2018-09-13T06:52:27.829Z,20.61
2018-09-13T06:53:27.825Z,20.63
2018-09-13T06:54:27.820Z,20.72
2018-09-13T06:55:27.814Z,20.76
2018-09-13T06:56:27.809Z,20.83
2018-09-13T06:57:27.798Z,20.87
2018-09-13T06:58:27.796Z,20.94
2018-09-13T06:59:27.793Z,20.93
2018-09-13T07:00:27.789Z,20.91
2018-09-13T07:01:27.780Z,20.94
2018-09-13T07:02:27.800Z,20.97
2018-09-13T07:03:27.773Z,21.13
2018-09-13T07:04:27.769Z,21.16
2018-09-13T07:05:27.764Z,21.21
2018-09-13T07:06:27.760Z,21.33
2018-09-13T07:07:27.750Z,21.34
2018-09-13T07:08:27.750Z,21.42
2018-09-13T07:09:27.746Z,21.46
2018-09-13T07:10:27.733Z,21.48
2018-09-13T07:11:27.730Z,21.55
2018-09-13T07:12:27.731Z,21.56
2018-09-13T07:13:27.726Z,21.49
2018-09-13T07:14:27.715Z,21.38
2018-09-13T07:15:27.711Z,21.49
2018-09-13T07:16:27.708Z,21.49
2018-09-13T07:17:27.705Z,21.37
2018-09-13T07:18:27.704Z,21.42
2018-09-13T07:19:27.702Z,21.31
2018-09-13T07:20:27.690Z,21.34
2018-09-13T07:21:27.685Z,21.37
2018-09-13T07:22:27.682Z,21.38
2018-09-13T07:23:27.694Z,21.42
2018-09-13T07:24:27.679Z,21.46
2018-09-13T07:25:27.671Z,21.51
2018-09-13T07:26:27.663Z,21.56
2018-09-13T07:27:27.665Z,21.49
2018-09-13T07:28:27.653Z,21.58
2018-09-13T07:29:27.649Z,21.52
2018-09-13T07:30:27.647Z,21.58
2018-09-13T07:31:27.641Z,21.58
2018-09-13T07:32:27.635Z,21.55
2018-09-13T07:33:27.632Z,21.56
2018-09-13T07:34:27.632Z,21.52
2018-09-13T07:35:27.628Z,21.38
2018-09-13T07:36:27.624Z,21.38
2018-09-13T07:37:27.616Z,21.45
2018-09-13T07:38:27.615Z,21.53
2018-09-13T07:39:27.604Z,21.56
2018-09-13T07:40:27.602Z,21.53
2018-09-13T07:41:27.601Z,21.67
2018-09-13T07:42:27.664Z,21.49
2018-09-13T07:43:27.591Z,21.28
2018-09-13T07:44:27.587Z,21.34
2018-09-13T07:45:27.584Z,21.42
2018-09-13T07:46:27.575Z,21.40
2018-09-13T07:47:27.569Z,21.53
2018-09-13T07:48:27.567Z,21.71
2018-09-13T07:49:27.608Z,21.79
2018-09-13T07:50:27.559Z,21.74
2018-09-13T07:51:27.556Z,21.83
2018-09-13T07:52:27.548Z,21.61
2018-09-13T07:53:27.543Z,21.52
2018-09-13T07:54:27.549Z,21.49
2018-09-13T07:55:27.532Z,21.61
2018-09-13T07:56:27.560Z,21.73
2018-09-13T07:57:27.525Z,21.85
2018-09-13T07:58:27.518Z,21.89
2018-09-13T07:59:27.517Z,22.02
2018-09-13T08:00:27.517Z,21.98
2018-09-13T08:01:27.506Z,21.85
2018-09-13T08:02:27.502Z,21.70
2018-09-13T08:03:27.498Z,21.46
2018-09-13T08:04:27.497Z,21.51
2018-09-13T08:05:27.489Z,21.49
2018-09-13T08:06:27.483Z,21.51
2018-09-13T08:07:27.481Z,21.51
2018-09-13T08:08:27.478Z,21.71
2018-09-13T08:09:27.478Z,21.83
2018-09-13T08:10:27.471Z,21.99
2018-09-13T08:11:27.467Z,22.04
2018-09-13T08:12:27.464Z,22.19
2018-09-13T08:13:27.454Z,22.30
2018-09-13T08:14:27.448Z,22.41
2018-09-13T08:15:27.445Z,22.45
2018-09-13T08:16:27.442Z,22.51
2018-09-13T08:17:27.440Z,22.59
2018-09-13T08:18:27.438Z,22.70
2018-09-13T08:19:27.439Z,22.78
2018-09-13T08:20:27.428Z,22.88
2018-09-13T08:21:27.429Z,22.94
2018-09-13T08:22:27.419Z,23.00
2018-09-13T08:23:27.415Z,23.07
2018-09-13T08:24:27.410Z,23.12
2018-09-13T08:25:27.403Z,23.23
2018-09-13T08:26:27.402Z,23.32
2018-09-13T08:27:27.399Z,23.29
2018-09-13T08:28:27.394Z,23.35
2018-09-13T08:29:27.392Z,23.42
2018-09-13T08:30:27.387Z,23.44
2018-09-13T08:31:27.385Z,23.47
2018-09-13T08:32:27.380Z,23.47
2018-09-13T08:33:27.478Z,23.38
2018-09-13T08:34:27.371Z,23.49
2018-09-13T08:35:27.375Z,23.52
2018-09-13T08:36:27.371Z,23.45
2018-09-13T08:37:27.369Z,23.53
2018-09-13T08:38:27.361Z,23.57
2018-09-13T08:39:27.359Z,23.64
2018-09-13T08:40:27.355Z,23.69
2018-09-13T08:41:27.354Z,23.78
2018-09-13T08:42:27.345Z,23.92
2018-09-13T08:43:27.342Z,23.97
2018-09-13T08:44:27.341Z,23.89
2018-09-13T08:45:27.332Z,24.02
2018-09-13T08:46:27.335Z,23.94
2018-09-13T08:47:27.369Z,23.96
2018-09-13T08:48:27.329Z,23.79
2018-09-13T08:49:27.328Z,23.78
2018-09-13T08:50:27.316Z,23.77
2018-09-13T08:51:27.323Z,23.74
2018-09-13T08:52:27.775Z,23.86
2018-09-13T08:53:27.310Z,23.94
2018-09-13T08:54:27.306Z,23.94
2018-09-13T08:55:27.308Z,23.96
2018-09-13T08:56:27.298Z,24.06
2018-09-13T08:57:27.299Z,24.06
2018-09-13T08:58:27.291Z,24.09
2018-09-13T08:59:27.302Z,24.05
2018-09-13T09:00:27.288Z,24.11
2018-09-13T09:01:27.285Z,24.16
2018-09-13T09:02:27.279Z,24.05
2018-09-13T09:03:27.278Z,24.12
2018-09-13T09:04:27.276Z,24.19
2018-09-13T09:05:27.278Z,24.30
2018-09-13T09:06:27.287Z,24.33
2018-09-13T09:07:27.271Z,24.29
2018-09-13T09:08:27.265Z,24.36
2018-09-13T09:09:27.257Z,24.34
2018-09-13T09:10:27.260Z,24.33
2018-09-13T09:11:27.256Z,24.41
2018-09-13T09:12:27.257Z,24.41
2018-09-13T09:13:27.254Z,24.45
2018-09-13T09:14:27.247Z,24.59
2018-09-13T09:15:27.245Z,24.59
2018-09-13T09:16:27.345Z,24.61
2018-09-13T09:17:27.234Z,24.64
2018-09-13T09:18:27.285Z,24.71
2018-09-13T09:19:27.229Z,24.82
2018-09-13T09:20:27.228Z,24.70
2018-09-13T09:21:27.228Z,24.70
2018-09-13T09:22:27.224Z,24.66
2018-09-13T09:23:27.225Z,24.68
2018-09-13T09:24:27.222Z,24.71
2018-09-13T09:25:27.216Z,24.74
2018-09-13T09:26:27.218Z,24.56
2018-09-13T09:27:27.210Z,24.44
2018-09-13T09:28:27.204Z,24.63
2018-09-13T09:29:27.239Z,24.68
2018-09-13T09:30:27.201Z,24.70
2018-09-13T09:31:27.202Z,24.74
2018-09-13T09:32:27.194Z,24.74
2018-09-13T09:33:27.194Z,24.71
2018-09-13T09:34:27.193Z,24.86
2018-09-13T09:35:27.188Z,24.98
2018-09-13T09:36:27.190Z,25.01
2018-09-13T09:37:27.180Z,25.09
2018-09-13T09:38:27.181Z,25.08
2018-09-13T09:39:27.175Z,25.11
2018-09-13T09:40:27.242Z,25.22
2018-09-13T09:41:27.175Z,25.20
2018-09-13T09:42:27.168Z,25.24
2018-09-13T09:43:27.172Z,25.34
2018-09-13T09:44:27.165Z,25.23
2018-09-13T09:45:27.166Z,25.31
2018-09-13T09:46:27.158Z,25.26
2018-09-13T09:47:27.157Z,25.44
2018-09-13T09:48:27.156Z,25.46
2018-09-13T09:49:27.152Z,25.41
2018-09-13T09:50:27.211Z,25.38
2018-09-13T09:51:27.153Z,25.35
2018-09-13T09:52:27.180Z,25.51
2018-09-13T09:53:27.146Z,25.59
2018-09-13T09:54:27.147Z,25.61
2018-09-13T09:55:27.137Z,25.71
2018-09-13T09:56:27.137Z,25.69
2018-09-13T09:57:27.140Z,25.71
2018-09-13T09:58:27.137Z,25.82
2018-09-13T09:59:27.136Z,25.89
2018-09-13T10:00:27.131Z,25.90
2018-09-13T10:01:27.131Z,25.97
2018-09-13T10:02:27.124Z,25.96
2018-09-13T10:03:27.120Z,26.13
2018-09-13T10:04:27.135Z,26.16
2018-09-13T10:05:27.117Z,26.17
2018-09-13T10:06:27.114Z,26.01
2018-09-13T10:07:27.115Z,26.01
2018-09-13T10:08:27.111Z,26.17
2018-09-13T10:09:27.108Z,26.24
2018-09-13T10:10:27.110Z,26.28
2018-09-13T10:11:27.106Z,26.35
2018-09-13T10:12:27.104Z,26.29
2018-09-13T10:13:27.107Z,26.41
2018-09-13T10:14:27.099Z,26.49
2018-09-13T10:15:27.104Z,26.61
2018-09-13T10:16:27.098Z,26.68
2018-09-13T10:17:27.099Z,26.61
2018-09-13T10:18:27.096Z,26.75
2018-09-13T10:19:27.101Z,26.84
2018-09-13T10:20:27.096Z,26.76
2018-09-13T10:21:27.093Z,26.87
2018-09-13T10:22:27.092Z,26.93
2018-09-13T10:23:27.087Z,26.96
2018-09-13T10:24:27.085Z,26.79
2018-09-13T10:25:27.089Z,26.73
2018-09-13T10:26:27.089Z,26.73
2018-09-13T10:27:27.081Z,26.79
2018-09-13T10:28:27.121Z,26.71
2018-09-13T10:29:27.152Z,26.76
2018-09-13T10:30:27.079Z,26.94
2018-09-13T10:31:27.076Z,26.98
2018-09-13T10:32:27.078Z,27.08
2018-09-13T10:33:27.093Z,27.05
2018-09-13T10:34:27.076Z,27.20
2018-09-13T10:35:27.071Z,27.34
2018-09-13T10:36:27.071Z,27.42
2018-09-13T10:37:27.075Z,27.20
2018-09-13T10:38:27.069Z,27.09
2018-09-13T10:39:27.069Z,27.08
2018-09-13T10:40:27.074Z,27.16
2018-09-13T10:41:27.105Z,27.28
2018-09-13T10:42:27.064Z,27.40
2018-09-13T10:43:27.069Z,27.49
2018-09-13T10:44:27.060Z,27.39
2018-09-13T10:45:27.063Z,27.38
2018-09-13T10:46:27.066Z,27.38
2018-09-13T10:47:27.080Z,27.42
2018-09-13T10:48:27.058Z,27.43
2018-09-13T10:49:27.061Z,27.49
2018-09-13T10:50:27.113Z,27.52
2018-09-13T10:51:27.063Z,27.69
2018-09-13T10:52:27.154Z,27.84
2018-09-13T10:53:27.056Z,28.05
2018-09-13T10:54:27.095Z,28.28
2018-09-13T10:55:27.083Z,28.33
2018-09-13T10:56:27.053Z,28.46
2018-09-13T10:57:27.057Z,28.48
2018-09-13T10:58:27.055Z,28.74
2018-09-13T10:59:27.054Z,28.83
2018-09-13T11:00:27.054Z,28.94
2018-09-13T11:01:27.051Z,29.10
2018-09-13T11:02:27.051Z,28.94
2018-09-13T11:03:27.053Z,28.82
2018-09-13T11:04:27.056Z,28.94
2018-09-13T11:05:27.053Z,29.08
2018-09-13T11:06:27.051Z,29.07
2018-09-13T11:07:27.056Z,29.15
2018-09-13T11:08:27.057Z,28.97
2018-09-13T11:09:27.055Z,29.02
2018-09-13T11:10:27.074Z,28.38
2018-09-13T11:11:27.059Z,27.88
2018-09-13T11:12:27.050Z,27.71
2018-09-13T11:13:27.051Z,27.84
2018-09-13T11:14:27.050Z,28.03
2018-09-13T11:15:27.055Z,28.27
2018-09-13T11:16:27.059Z,28.35
2018-09-13T11:17:27.051Z,28.50
2018-09-13T11:18:27.051Z,28.64
2018-09-13T11:19:27.052Z,28.76
2018-09-13T11:20:27.058Z,28.64
2018-09-13T11:21:27.057Z,28.52
2018-09-13T11:22:27.066Z,28.52
2018-09-13T11:23:27.056Z,28.23
2018-09-13T11:24:27.079Z,27.98
2018-09-13T11:25:27.056Z,27.91
2018-09-13T11:26:27.060Z,28.14
2018-09-13T11:27:27.053Z,28.28
2018-09-13T11:28:27.056Z,28.38
2018-09-13T11:29:27.053Z,28.38
2018-09-13T11:30:27.125Z,28.55
2018-09-13T11:31:27.055Z,28.52
2018-09-13T11:32:27.058Z,28.55
2018-09-13T11:33:27.055Z,28.70
2018-09-13T11:34:27.070Z,28.92
2018-09-13T11:35:27.056Z,28.92
2018-09-13T11:36:27.056Z,28.94
2018-09-13T11:37:27.062Z,29.02
2018-09-13T11:38:27.056Z,29.11
2018-09-13T11:39:27.057Z,29.15
2018-09-13T11:40:27.164Z,29.20
2018-09-13T11:41:27.060Z,29.25
2018-09-13T11:42:27.057Z,29.52
2018-09-13T11:43:27.065Z,29.58
2018-09-13T11:44:27.062Z,29.62
2018-09-13T11:45:27.066Z,29.60
2018-09-13T11:46:27.060Z,29.52
2018-09-13T11:47:27.061Z,29.42
2018-09-13T11:48:27.061Z,29.44
2018-09-13T11:49:27.067Z,29.36
2018-09-13T11:50:27.066Z,29.48
2018-09-13T11:51:27.065Z,29.11
2018-09-13T11:52:27.065Z,28.82
2018-09-13T11:53:27.071Z,28.73
2018-09-13T11:54:27.064Z,28.55
2018-09-13T11:56:27.065Z,28.36
2018-09-13T11:57:27.069Z,28.45
2018-09-13T11:58:27.071Z,28.48
2018-09-13T11:59:27.067Z,28.35
2018-09-13T12:00:27.067Z,28.39
2018-09-13T12:01:27.070Z,28.39
2018-09-13T12:02:27.073Z,28.51
2018-09-13T12:03:27.069Z,28.58
2018-09-13T12:04:27.073Z,28.69
2018-09-13T12:05:27.073Z,28.55
2018-09-13T12:06:27.075Z,28.62
2018-09-13T12:07:27.071Z,28.58
2018-09-13T12:08:27.076Z,28.51
2018-09-13T12:09:27.083Z,28.48
2018-09-13T12:10:27.080Z,28.45
2018-09-13T12:11:27.069Z,28.39
2018-09-13T12:12:27.076Z,28.35
2018-09-13T12:13:27.074Z,28.51
2018-09-13T12:14:27.078Z,28.50
2018-09-13T12:15:27.071Z,28.51
2018-09-13T12:16:27.079Z,28.48
2018-09-13T12:17:27.072Z,28.57
2018-09-13T12:18:27.221Z,28.77
2018-09-13T12:19:27.076Z,28.72
2018-09-13T12:20:27.080Z,28.83
2018-09-13T12:21:27.074Z,29.08
2018-09-13T12:22:27.095Z,29.03
2018-09-13T12:23:27.081Z,28.91
2018-09-13T12:24:27.073Z,28.87
2018-09-13T12:25:27.073Z,28.80
2018-09-13T12:26:27.076Z,28.94
2018-09-13T12:27:27.083Z,28.95
2018-09-13T12:28:27.081Z,29.03
2018-09-13T12:29:27.074Z,29.07
2018-09-13T12:30:27.074Z,29.07
2018-09-13T12:31:27.076Z,29.08
2018-09-13T12:32:27.082Z,29.12
2018-09-13T12:33:27.080Z,29.21
2018-09-13T12:34:27.082Z,29.25
2018-09-13T12:35:27.077Z,29.21
2018-09-13T12:36:27.082Z,29.23
2018-09-13T12:37:27.085Z,29.23
2018-09-13T12:38:27.081Z,29.18
2018-09-13T12:39:27.087Z,29.32
2018-09-13T12:40:27.089Z,29.36
2018-09-13T12:41:27.084Z,29.32
2018-09-13T12:42:27.081Z,29.10
2018-09-13T12:43:27.081Z,29.14
2018-09-13T12:44:27.080Z,29.17
2018-09-13T12:45:27.090Z,29.12
2018-09-13T12:46:27.082Z,29.10
2018-09-13T12:47:27.082Z,29.03
2018-09-13T12:48:27.087Z,28.97
2018-09-13T12:49:27.084Z,29.00
2018-09-13T12:50:27.091Z,29.03
2018-09-13T12:51:27.087Z,28.94
2018-09-13T12:52:27.101Z,29.02
2018-09-13T12:53:27.085Z,29.08